Time;durP1;ratioP1;P1;durP2;ratioP2;P2;SDS_P1;SDS_P2;PMS_P1;PMS_P2;Temp;Humidity;BMP_temperature;BMP_pressure;BME280_temperature;BME280_humidity;BME280_pressure;Samples;Min_cycle;Max_cycle;Signal;HPM_P1;HPM_P2
2021/04/26 00:01:11;;;;;;;1.67;0.60;;;13.50;68.90;;;;;;5092818;28;20051;-46
2021/04/26 00:03:37;;;;;;;1.40;0.65;;;13.50;68.80;;;;;;5090064;28;20043;-47
2021/04/26 00:06:03;;;;;;;0.90;0.75;;;13.50;68.90;;;;;;5092865;28;20123;-44
2021/04/26 00:08:29;;;;;;;0.88;0.50;;;13.50;68.90;;;;;;5092321;28;20564;-45
2021/04/26 00:10:55;;;;;;;2.47;0.70;;;13.40;68.80;;;;;;5092997;28;20118;-44
2021/04/26 00:13:20;;;;;;;0.80;0.80;;;13.50;68.90;;;;;;5092754;28;20116;-46
2021/04/26 00:15:46;;;;;;;0.70;0.70;;;13.40;68.80;;;;;;5092821;28;20122;-42
2021/04/26 00:18:13;;;;;;;2.70;0.80;;;13.40;68.90;;;;;;5092557;28;20484;-44
2021/04/26 00:20:39;;;;;;;0.60;0.50;;;13.40;68.80;;;;;;5092660;28;20071;-42
2021/04/26 00:23:05;;;;;;;0.77;0.60;;;13.40;68.90;;;;;;5092081;28;20123;-44
2021/04/26 00:25:31;;;;;;;0.70;0.50;;;13.40;68.90;;;;;;5092554;28;20051;-43
2021/04/26 00:27:58;;;;;;;0.70;0.60;;;13.40;68.90;;;;;;5089833;28;20044;-45
2021/04/26 00:30:25;;;;;;;0.70;0.50;;;13.50;68.90;;;;;;5092533;28;20044;-43
2021/04/26 00:32:52;;;;;;;1.30;0.60;;;13.40;68.90;;;;;;5092446;28;20048;-43
2021/04/26 00:35:18;;;;;;;1.17;0.70;;;13.40;68.90;;;;;;5089462;28;20122;-41
2021/04/26 00:37:45;;;;;;;0.45;0.45;;;13.40;68.90;;;;;;5092420;28;20143;-44
2021/04/26 00:40:12;;;;;;;0.80;0.70;;;13.40;68.90;;;;;;5091979;28;20051;-44
2021/04/26 00:42:39;;;;;;;0.93;0.60;;;13.40;68.90;;;;;;5089935;28;20131;-43
2021/04/26 00:45:09;;;;;;;1.25;0.80;;;13.40;68.90;;;;;;5092014;28;20066;-42
2021/04/26 00:47:43;;;;;;;0.50;0.50;;;13.40;68.90;;;;;;5092156;28;20544;-46
2021/04/26 00:50:13;;;;;;;1.40;0.80;;;13.40;69.00;;;;;;5092242;28;20044;-45
2021/04/26 00:52:39;;;;;;;0.90;0.65;;;13.40;69.00;;;;;;5089709;28;20051;-44
2021/04/26 00:55:06;;;;;;;1.60;0.68;;;13.40;69.00;;;;;;5092033;28;20079;-42
2021/04/26 00:57:33;;;;;;;0.60;0.60;;;13.40;69.00;;;;;;5095471;28;20123;-45
2021/04/26 00:59:58;;;;;;;0.60;0.57;;;13.40;69.00;;;;;;5096556;28;20064;-46
2021/04/26 01:02:24;;;;;;;0.95;0.70;;;13.40;69.00;;;;;;5096187;28;20395;-44
2021/04/26 01:04:52;;;;;;;0.50;0.50;;;13.40;69.00;;;;;;5096233;28;20492;-43
2021/04/26 01:07:18;;;;;;;0.52;0.50;;;13.40;69.00;;;;;;5093525;28;20051;-45
2021/04/26 01:09:43;;;;;;;0.90;0.65;;;13.40;69.00;;;;;;5096167;28;20047;-43
2021/04/26 01:12:37;;;;;;;0.60;0.50;;;13.40;69.00;;;;;;5096194;28;20044;-45
2021/04/26 01:15:23;;;;;;;0.68;0.68;;;13.40;69.00;;;;;;5094290;28;20079;-42
2021/04/26 01:18:28;;;;;;;2.05;0.68;;;13.40;69.10;;;;;;5094662;28;20051;-45
2021/04/26 01:21:30;;;;;;;1.30;0.47;;;13.40;69.10;;;;;;5062253;28;20410;-44
2021/04/26 01:24:11;;;;;;;0.77;0.50;;;13.40;69.10;;;;;;5064081;28;20480;-45
2021/04/26 01:26:58;;;;;;;1.83;0.63;;;13.40;69.10;;;;;;5064060;28;20492;-43
2021/04/26 01:29:47;;;;;;;1.13;0.73;;;13.30;69.10;;;;;;5063280;28;20063;-45
2021/04/26 01:32:30;;;;;;;0.45;0.45;;;13.30;69.80;;;;;;4985161;28;20155;-42
2021/04/26 01:34:57;;;;;;;0.65;0.55;;;13.30;69.10;;;;;;4985177;28;20054;-47
2021/04/26 01:37:24;;;;;;;1.38;0.50;;;13.30;69.10;;;;;;4983959;28;20050;-42
2021/04/26 01:39:51;;;;;;;0.50;0.50;;;13.40;69.20;;;;;;4983394;28;20615;-44
2021/04/26 01:42:18;;;;;;;0.63;0.63;;;13.30;69.10;;;;;;4979961;28;20038;-43
2021/04/26 01:44:44;;;;;;;1.75;0.77;;;13.30;69.20;;;;;;4983800;28;20061;-45
2021/04/26 01:47:10;;;;;;;1.35;0.70;;;13.30;69.20;;;;;;4984461;28;20411;-42
2021/04/26 01:49:38;;;;;;;0.57;0.57;;;13.30;69.20;;;;;;4982695;28;20051;-43
2021/04/26 01:52:06;;;;;;;0.60;0.60;;;13.30;69.20;;;;;;4984109;28;20055;-45
2021/04/26 01:54:33;;;;;;;0.80;0.50;;;13.30;69.20;;;;;;5002375;28;20060;-43
2021/04/26 01:56:59;;;;;;;0.60;0.60;;;13.30;69.20;;;;;;5030114;28;20068;-43
2021/04/26 01:59:26;;;;;;;0.45;0.43;;;13.30;69.20;;;;;;5032532;28;20486;-45
2021/04/26 02:01:56;;;;;;;0.65;0.65;;;13.30;69.20;;;;;;5032666;28;20049;-46
2021/04/26 02:04:25;;;;;;;0.70;0.60;;;13.30;69.20;;;;;;5030560;28;20556;-44
2021/04/26 02:06:51;;;;;;;1.00;0.60;;;13.30;69.20;;;;;;5032858;28;20107;-44
2021/04/26 02:09:17;;;;;;;0.40;0.40;;;13.30;69.20;;;;;;5065779;28;20043;-43
2021/04/26 02:11:45;;;;;;;1.08;0.60;;;13.30;69.20;;;;;;5094546;28;20044;-42
2021/04/26 02:14:12;;;;;;;0.60;0.60;;;13.30;69.20;;;;;;5094756;28;20097;-43
2021/04/26 02:16:39;;;;;;;1.00;0.47;;;13.30;69.30;;;;;;5090779;28;20071;-48
2021/04/26 02:19:05;;;;;;;0.98;0.68;;;13.30;69.90;;;;;;5094877;28;20048;-47
2021/04/26 02:21:31;;;;;;;0.60;0.60;;;13.30;69.20;;;;;;5094813;28;20089;-46
2021/04/26 02:23:57;;;;;;;0.50;0.50;;;13.30;69.20;;;;;;5094826;28;20044;-45
2021/04/26 02:26:23;;;;;;;0.95;0.60;;;13.30;69.20;;;;;;5094600;28;20043;-46
2021/04/26 02:28:49;;;;;;;0.93;0.70;;;13.30;69.20;;;;;;5094376;28;20094;-44
2021/04/26 02:31:19;;;;;;;1.17;0.68;;;13.30;69.30;;;;;;5094536;28;20048;-46
2021/04/26 02:34:00;;;;;;;0.63;0.50;;;13.30;69.30;;;;;;5094809;28;20047;-45
2021/04/26 02:36:34;;;;;;;1.10;0.68;;;13.30;69.30;;;;;;5092904;28;20445;-44
2021/04/26 02:39:07;;;;;;;0.77;0.50;;;13.30;69.20;;;;;;5092084;28;20427;-43
2021/04/26 02:41:36;;;;;;;1.45;0.73;;;13.20;69.20;;;;;;5094322;28;20058;-44
2021/04/26 02:44:06;;;;;;;0.60;0.60;;;13.30;69.30;;;;;;5093950;28;20101;-43
2021/04/26 02:46:34;;;;;;;0.70;0.70;;;13.20;69.20;;;;;;5094666;28;20036;-42
2021/04/26 02:49:02;;;;;;;0.63;0.50;;;13.20;69.20;;;;;;5091907;28;20092;-42
2021/04/26 02:51:33;;;;;;;1.15;0.57;;;13.20;69.20;;;;;;5094417;28;20069;-43
2021/04/26 02:53:59;;;;;;;3.25;0.60;;;13.20;69.30;;;;;;5091494;28;20044;-43
2021/04/26 02:56:26;;;;;;;0.57;0.57;;;13.20;69.30;;;;;;5093901;28;20047;-44
2021/04/26 02:58:55;;;;;;;1.15;0.60;;;13.20;69.30;;;;;;5094049;28;20040;-42
2021/04/26 03:01:21;;;;;;;0.55;0.55;;;13.20;69.30;;;;;;5091644;28;20036;-45
2021/04/26 03:03:48;;;;;;;0.60;0.60;;;13.20;69.30;;;;;;5092916;28;20048;-43
2021/04/26 03:06:15;;;;;;;0.68;0.57;;;13.20;69.30;;;;;;5093973;28;20123;-43
2021/04/26 03:08:41;;;;;;;1.10;0.95;;;13.20;69.30;;;;;;5093757;28;20059;-43
2021/04/26 03:11:10;;;;;;;1.58;0.68;;;13.20;69.30;;;;;;5093805;28;20036;-44
2021/04/26 03:13:38;;;;;;;0.50;0.50;;;13.20;69.30;;;;;;5094023;28;20040;-43
2021/04/26 03:16:04;;;;;;;1.02;0.63;;;13.20;69.30;;;;;;5093344;28;20094;-42
2021/04/26 03:18:31;;;;;;;0.60;0.60;;;13.20;69.30;;;;;;5093867;28;20040;-42
2021/04/26 03:20:58;;;;;;;0.73;0.57;;;13.20;69.30;;;;;;5092737;28;20051;-43
2021/04/26 03:23:26;;;;;;;0.40;0.40;;;13.20;69.30;;;;;;5093822;28;20051;-43
2021/04/26 03:25:56;;;;;;;0.50;0.47;;;13.20;69.40;;;;;;5093421;28;20048;-45
2021/04/26 03:28:23;;;;;;;1.00;0.63;;;13.20;69.30;;;;;;5091582;28;20046;-43
2021/04/26 03:30:49;;;;;;;0.75;0.60;;;13.20;69.40;;;;;;5093218;28;20109;-43
2021/04/26 03:33:15;;;;;;;1.25;0.70;;;13.20;69.30;;;;;;5093261;28;20040;-42
2021/04/26 03:35:43;;;;;;;1.23;0.52;;;13.20;69.40;;;;;;5093398;28;20122;-43
2021/04/26 03:38:14;;;;;;;0.68;0.50;;;13.20;70.00;;;;;;5093189;28;20051;-43
2021/04/26 03:40:41;;;;;;;1.60;0.50;;;13.20;69.40;;;;;;5091135;28;20047;-43
2021/04/26 03:43:07;;;;;;;0.63;0.60;;;13.20;69.40;;;;;;5093280;28;20484;-42
2021/04/26 03:45:33;;;;;;;0.50;0.50;;;13.10;69.30;;;;;;5092775;28;20146;-42
2021/04/26 03:47:59;;;;;;;0.75;0.50;;;13.20;69.40;;;;;;5093237;28;20059;-42
2021/04/26 03:50:26;;;;;;;0.88;0.85;;;13.20;69.50;;;;;;5093360;28;20036;-42
2021/04/26 03:52:52;;;;;;;0.60;0.55;;;13.20;69.40;;;;;;5093317;28;20091;-42
2021/04/26 03:55:23;;;;;;;0.40;0.40;;;13.20;69.40;;;;;;5092767;28;20495;-44
2021/04/26 03:57:49;;;;;;;0.43;0.43;;;13.20;69.40;;;;;;5092945;28;20040;-42
2021/04/26 04:00:17;;;;;;;0.65;0.50;;;13.20;69.40;;;;;;5092507;28;20044;-43
2021/04/26 04:02:43;;;;;;;0.70;0.52;;;13.10;69.40;;;;;;5091937;28;20044;-44
2021/04/26 04:05:10;;;;;;;0.55;0.50;;;13.10;69.40;;;;;;5091855;28;20086;-41
2021/04/26 04:07:36;;;;;;;0.90;0.70;;;13.20;69.40;;;;;;5092207;28;20036;-43
2021/04/26 04:10:04;;;;;;;1.30;0.60;;;13.10;69.40;;;;;;5092831;28;20055;-41
2021/04/26 04:12:31;;;;;;;1.15;0.70;;;13.10;69.40;;;;;;5093131;28;20059;-43
2021/04/26 04:14:56;;;;;;;0.88;0.50;;;13.10;69.40;;;;;;5092590;28;20044;-42
2021/04/26 04:17:22;;;;;;;0.40;0.35;;;13.10;69.40;;;;;;5092620;28;20131;-43
2021/04/26 04:19:48;;;;;;;0.35;0.35;;;13.10;69.40;;;;;;5092614;28;20039;-42
2021/04/26 04:22:14;;;;;;;0.40;0.40;;;13.10;69.40;;;;;;5092699;28;20059;-43
2021/04/26 04:24:39;;;;;;;0.40;0.40;;;13.10;69.40;;;;;;5092489;28;20040;-43
2021/04/26 04:27:05;;;;;;;1.65;0.60;;;13.10;69.50;;;;;;5092777;28;20048;-42
2021/04/26 04:29:31;;;;;;;0.43;0.40;;;13.10;69.50;;;;;;5092953;28;20043;-42
2021/04/26 04:31:57;;;;;;;0.88;0.88;;;13.10;69.50;;;;;;5092152;28;20074;-43
2021/04/26 04:34:22;;;;;;;0.68;0.57;;;13.10;69.50;;;;;;5092575;28;20472;-43
2021/04/26 04:36:48;;;;;;;1.42;0.70;;;13.10;69.50;;;;;;5092418;28;20047;-43
2021/04/26 04:39:14;;;;;;;0.50;0.50;;;13.10;69.50;;;;;;5092288;28;20040;-42
2021/04/26 04:41:40;;;;;;;1.02;0.55;;;13.10;69.50;;;;;;5092503;28;20127;-44
2021/04/26 04:44:06;;;;;;;0.80;0.55;;;13.10;69.50;;;;;;5092299;28;20061;-43
2021/04/26 04:46:31;;;;;;;0.60;0.50;;;13.10;69.50;;;;;;5092573;28;20052;-43
2021/04/26 04:48:57;;;;;;;0.52;0.50;;;13.10;69.50;;;;;;5092026;28;20044;-44
2021/04/26 04:51:23;;;;;;;0.70;0.50;;;13.10;69.50;;;;;;5092344;28;20063;-43
2021/04/26 04:53:49;;;;;;;0.52;0.40;;;13.10;69.50;;;;;;5092430;28;20066;-43
2021/04/26 04:56:15;;;;;;;0.50;0.50;;;13.00;69.50;;;;;;5092057;28;20036;-44
2021/04/26 04:58:41;;;;;;;0.55;0.43;;;13.10;69.50;;;;;;5092151;28;20090;-47
2021/04/26 05:01:07;;;;;;;0.50;0.50;;;13.10;69.60;;;;;;5092485;28;20093;-45
2021/04/26 05:03:33;;;;;;;0.50;0.40;;;13.10;69.60;;;;;;5092444;28;20044;-43
2021/04/26 05:05:59;;;;;;;0.60;0.60;;;13.10;69.50;;;;;;5092685;28;20048;-45
2021/04/26 05:08:24;;;;;;;0.40;0.40;;;13.10;69.50;;;;;;5092739;28;20048;-47
2021/04/26 05:10:50;;;;;;;0.63;0.63;;;13.10;69.60;;;;;;5092608;28;20047;-43
2021/04/26 05:13:16;;;;;;;0.50;0.50;;;13.10;69.60;;;;;;5092947;28;20127;-46
2021/04/26 05:15:42;;;;;;;0.60;0.60;;;13.00;69.50;;;;;;5092521;28;20055;-47
2021/04/26 05:18:08;;;;;;;0.80;0.73;;;13.00;69.50;;;;;;5092761;28;20044;-49
2021/04/26 05:20:35;;;;;;;0.50;0.50;;;13.00;69.50;;;;;;5092285;28;20558;-44
2021/04/26 05:23:01;;;;;;;0.80;0.60;;;13.00;69.60;;;;;;5092598;28;20469;-46
2021/04/26 05:25:27;;;;;;;0.40;0.40;;;13.00;69.50;;;;;;5092380;28;20111;-44
2021/04/26 05:27:53;;;;;;;0.68;0.50;;;13.00;69.60;;;;;;5092208;28;20039;-47
2021/04/26 05:30:19;;;;;;;0.50;0.50;;;13.00;69.60;;;;;;5091896;28;20404;-45
2021/04/26 05:32:46;;;;;;;0.93;0.68;;;13.00;69.60;;;;;;5092159;28;20040;-44
2021/04/26 05:35:12;;;;;;;0.63;0.50;;;13.00;69.60;;;;;;5091440;28;20435;-47
2021/04/26 05:37:38;;;;;;;0.52;0.47;;;13.00;69.60;;;;;;5091978;28;20044;-43
2021/04/26 05:40:04;;;;;;;0.50;0.50;;;13.00;69.60;;;;;;5091787;28;20052;-44
2021/04/26 05:42:30;;;;;;;0.57;0.50;;;13.00;69.60;;;;;;5091989;28;20059;-45
2021/04/26 05:44:55;;;;;;;1.10;0.65;;;13.00;69.60;;;;;;5092469;28;20056;-46
2021/04/26 05:47:21;;;;;;;0.65;0.50;;;13.00;69.60;;;;;;5095668;28;20044;-46
2021/04/26 05:49:47;;;;;;;0.50;0.50;;;13.00;69.60;;;;;;5095273;28;20036;-45
2021/04/26 05:52:13;;;;;;;0.40;0.40;;;13.00;69.60;;;;;;5095458;28;20131;-46
2021/04/26 05:54:38;;;;;;;0.80;0.63;;;13.00;69.60;;;;;;5095369;28;20052;-42
2021/04/26 05:57:04;;;;;;;0.60;0.60;;;13.00;69.60;;;;;;5094893;28;20047;-43
2021/04/26 05:59:30;;;;;;;2.20;0.70;;;13.00;69.60;;;;;;5095597;28;20047;-45
2021/04/26 06:01:56;;;;;;;0.40;0.40;;;13.00;69.60;;;;;;5092444;28;20036;-44
2021/04/26 06:04:22;;;;;;;0.75;0.60;;;13.00;69.60;;;;;;5095270;28;20084;-47
2021/04/26 06:06:47;;;;;;;1.25;0.80;;;13.00;69.60;;;;;;5095379;28;20121;-46
2021/04/26 06:09:13;;;;;;;0.65;0.57;;;13.00;69.60;;;;;;5095754;28;20166;-43
2021/04/26 06:11:39;;;;;;;0.65;0.60;;;13.00;69.60;;;;;;5095345;28;20473;-43
2021/04/26 06:14:04;;;;;;;0.68;0.50;;;13.00;69.60;;;;;;5095758;28;20573;-45
2021/04/26 06:16:30;;;;;;;0.47;0.47;;;13.00;69.60;;;;;;5095444;28;20048;-46
2021/04/26 06:18:56;;;;;;;1.13;0.52;;;13.00;70.40;;;;;;5095542;28;20389;-44
2021/04/26 06:21:22;;;;;;;0.80;0.70;;;13.00;69.70;;;;;;5094953;28;20477;-43
2021/04/26 06:23:48;;;;;;;1.20;0.60;;;13.00;69.70;;;;;;5095266;28;20109;-42
2021/04/26 06:26:13;;;;;;;0.52;0.52;;;13.10;69.80;;;;;;5095033;28;20044;-45
2021/04/26 06:28:39;;;;;;;0.70;0.50;;;13.00;69.70;;;;;;5094635;28;20044;-47
2021/04/26 06:31:05;;;;;;;0.63;0.52;;;13.00;69.70;;;;;;5094831;28;20044;-42
2021/04/26 06:33:31;;;;;;;0.93;0.73;;;13.00;69.70;;;;;;5094676;28;20523;-48
2021/04/26 06:35:57;;;;;;;0.68;0.57;;;12.90;69.70;;;;;;5094398;28;20044;-42
2021/04/26 06:38:23;;;;;;;0.52;0.45;;;13.00;69.70;;;;;;5094337;28;20040;-44
2021/04/26 06:40:49;;;;;;;0.47;0.47;;;13.00;69.70;;;;;;5094510;28;20119;-42
2021/04/26 06:43:16;;;;;;;1.00;0.50;;;13.00;69.70;;;;;;5094420;28;20089;-42
2021/04/26 06:45:42;;;;;;;0.50;0.50;;;13.00;69.70;;;;;;5094049;28;20044;-44
2021/04/26 06:48:09;;;;;;;0.63;0.50;;;13.00;69.70;;;;;;5094471;28;20119;-47
2021/04/26 06:50:36;;;;;;;0.60;0.60;;;13.00;69.70;;;;;;5094561;28;20048;-45
2021/04/26 06:53:02;;;;;;;0.70;0.60;;;13.00;69.70;;;;;;5093736;28;20142;-43
2021/04/26 06:55:28;;;;;;;0.63;0.50;;;13.00;69.70;;;;;;5093957;28;20040;-43
2021/04/26 06:57:54;;;;;;;0.80;0.60;;;13.00;69.70;;;;;;5093993;28;20040;-42
2021/04/26 07:00:21;;;;;;;1.38;0.52;;;13.00;69.70;;;;;;5094330;28;20401;-43
2021/04/26 07:02:50;;;;;;;0.73;0.60;;;13.00;69.70;;;;;;5091367;28;20790;-43
2021/04/26 07:05:17;;;;;;;1.63;0.70;;;13.00;69.70;;;;;;5094201;28;20115;-44
2021/04/26 07:07:43;;;;;;;4.80;1.60;;;13.00;69.70;;;;;;5093354;28;20047;-44
2021/04/26 07:10:09;;;;;;;2.15;1.38;;;13.00;68.90;;;;;;5093863;28;20044;-44
2021/04/26 07:12:36;;;;;;;4.97;1.10;;;13.00;68.80;;;;;;5094227;28;20055;-44
2021/04/26 07:15:04;;;;;;;2.03;1.05;;;13.00;68.70;;;;;;5094231;28;20052;-43
2021/04/26 07:17:30;;;;;;;3.65;1.45;;;13.10;68.60;;;;;;5094033;28;20053;-43
2021/04/26 07:19:55;;;;;;;2.47;1.17;;;13.10;68.50;;;;;;5094113;28;20048;-45
2021/04/26 07:22:21;;;;;;;2.30;1.33;;;13.10;68.50;;;;;;5093839;28;20077;-46
2021/04/26 07:24:47;;;;;;;2.05;0.98;;;13.10;68.50;;;;;;5093543;28;20462;-45
2021/04/26 07:27:13;;;;;;;3.50;1.30;;;13.10;68.50;;;;;;5093746;28;20412;-47
2021/04/26 07:29:38;;;;;;;2.05;1.15;;;13.10;68.50;;;;;;5093882;28;20105;-45
2021/04/26 07:32:04;;;;;;;2.30;0.95;;;13.10;68.40;;;;;;5094074;28;20401;-46
2021/04/26 07:34:31;;;;;;;2.38;1.08;;;13.10;68.40;;;;;;5093723;28;20048;-45
2021/04/26 07:37:00;;;;;;;2.42;0.93;;;13.10;68.50;;;;;;5093751;28;20055;-44
2021/04/26 07:39:26;;;;;;;6.50;1.67;;;13.20;68.50;;;;;;5092665;28;20040;-43
2021/04/26 07:41:52;;;;;;;5.78;1.60;;;13.20;67.80;;;;;;5090996;28;20072;-38
2021/04/26 07:44:19;;;;;;;4.22;1.50;;;13.20;67.40;;;;;;5088226;28;20083;-42
2021/04/26 07:46:44;;;;;;;4.13;1.48;;;13.30;67.20;;;;;;5092989;28;20048;-39
2021/04/26 07:49:11;;;;;;;2.80;1.30;;;13.30;67.00;;;;;;5092532;28;20117;-43
2021/04/26 07:51:36;;;;;;;3.15;1.20;;;13.30;66.90;;;;;;5092874;28;20040;-40
2021/04/26 07:54:02;;;;;;;4.57;1.30;;;13.30;66.90;;;;;;5092756;28;20405;-40
2021/04/26 07:56:30;;;;;;;2.15;1.08;;;13.30;66.90;;;;;;5092032;28;20038;-39
2021/04/26 07:58:55;;;;;;;4.72;1.35;;;13.30;66.90;;;;;;5092378;28;20127;-42
2021/04/26 08:01:21;;;;;;;4.00;1.33;;;13.30;66.90;;;;;;5092493;28;20602;-41
2021/04/26 08:03:47;;;;;;;1.42;0.98;;;13.30;67.00;;;;;;5092560;28;20134;-41
2021/04/26 08:06:12;;;;;;;3.15;1.48;;;13.30;67.00;;;;;;5092363;28;20044;-44
2021/04/26 08:08:38;;;;;;;3.58;1.20;;;13.30;67.10;;;;;;5092351;28;20082;-44
2021/04/26 08:11:04;;;;;;;3.35;1.20;;;13.30;67.10;;;;;;5092397;28;20044;-42
2021/04/26 08:13:31;;;;;;;4.07;1.05;;;13.30;67.10;;;;;;5092127;28;20052;-41
2021/04/26 08:15:58;;;;;;;3.08;1.30;;;13.40;67.30;;;;;;5092165;28;20047;-45
2021/04/26 08:18:24;;;;;;;2.88;1.20;;;13.40;67.30;;;;;;5091847;28;20044;-41
2021/04/26 08:20:50;;;;;;;2.88;0.93;;;13.40;67.30;;;;;;5089337;28;20115;-42
2021/04/26 08:23:16;;;;;;;1.65;1.13;;;13.40;67.30;;;;;;5092138;28;20175;-42
2021/04/26 08:25:42;;;;;;;1.98;1.10;;;13.40;67.40;;;;;;5091472;28;20119;-45
2021/04/26 08:28:07;;;;;;;2.92;1.20;;;13.40;67.40;;;;;;5091965;28;20036;-40
2021/04/26 08:30:33;;;;;;;2.05;1.00;;;13.40;67.40;;;;;;5091814;28;20040;-40
2021/04/26 08:32:59;;;;;;;2.13;0.90;;;13.50;67.50;;;;;;5090752;28;20109;-42
2021/04/26 08:35:25;;;;;;;3.08;1.10;;;13.40;67.50;;;;;;5091558;28;20060;-42
2021/04/26 08:37:51;;;;;;;2.75;0.98;;;13.50;67.60;;;;;;5091848;28;20044;-45
2021/04/26 08:40:17;;;;;;;2.75;1.20;;;13.50;67.60;;;;;;5091726;28;20046;-42
2021/04/26 08:42:43;;;;;;;1.67;0.82;;;13.50;67.60;;;;;;5091355;28;20131;-42
2021/04/26 08:45:10;;;;;;;3.03;0.90;;;13.50;67.70;;;;;;5091242;28;20471;-43
2021/04/26 08:47:40;;;;;;;2.58;1.15;;;13.50;67.60;;;;;;5091561;28;20044;-45
2021/04/26 08:50:08;;;;;;;1.13;0.70;;;13.60;67.70;;;;;;5089479;28;20082;-43
2021/04/26 08:52:34;;;;;;;2.88;0.93;;;13.60;67.70;;;;;;5088438;28;20110;-39
2021/04/26 08:55:00;;;;;;;2.45;1.00;;;13.60;67.70;;;;;;5080904;28;20069;-43
2021/04/26 08:57:25;;;;;;;1.05;0.88;;;13.60;67.70;;;;;;5090605;28;20039;-40
2021/04/26 08:59:51;;;;;;;2.45;0.80;;;13.60;67.70;;;;;;5091341;28;20040;-42
2021/04/26 09:02:17;;;;;;;2.65;1.35;;;13.60;67.70;;;;;;5090682;28;20182;-43
2021/04/26 09:04:49;;;;;;;1.83;0.90;;;13.70;67.80;;;;;;5084669;28;20036;-39
2021/04/26 09:07:15;;;;;;;1.40;0.70;;;13.70;67.80;;;;;;5082800;28;20443;-40
2021/04/26 09:09:52;;;;;;;2.33;1.10;;;13.70;67.80;;;;;;5067118;28;20151;-41
2021/04/26 09:12:21;;;;;;;1.65;1.02;;;13.70;67.80;;;;;;5066060;28;20045;-40
2021/04/26 09:14:52;;;;;;;1.77;0.80;;;13.70;67.70;;;;;;5086500;28;20063;-42
2021/04/26 09:17:31;;;;;;;1.20;0.60;;;13.70;67.70;;;;;;5086782;28;20127;-39
2021/04/26 09:20:00;;;;;;;1.13;0.60;;;13.80;67.80;;;;;;5090971;28;20044;-41
2021/04/26 09:22:49;;;;;;;1.15;0.65;;;13.70;67.70;;;;;;5090527;28;20044;-38
2021/04/26 09:25:27;;;;;;;1.50;0.90;;;13.80;67.80;;;;;;5090246;28;20051;-41
2021/04/26 09:28:06;;;;;;;1.80;0.80;;;13.90;67.80;;;;;;5090458;28;20081;-39
2021/04/26 09:30:42;;;;;;;1.17;0.85;;;13.80;67.70;;;;;;5090213;28;20480;-39
2021/04/26 09:33:27;;;;;;;1.27;0.70;;;13.80;67.70;;;;;;5090840;28;20113;-39
2021/04/26 09:35:59;;;;;;;1.50;0.80;;;13.90;67.70;;;;;;5090369;28;20048;-40
2021/04/26 09:38:30;;;;;;;2.35;0.75;;;13.90;67.70;;;;;;5090291;28;20048;-39
2021/04/26 09:41:27;;;;;;;1.80;0.80;;;13.90;67.70;;;;;;5090485;28;20516;-39
2021/04/26 09:44:01;;;;;;;0.65;0.60;;;13.90;67.60;;;;;;5090194;28;20112;-40
2021/04/26 09:46:50;;;;;;;1.77;0.70;;;13.90;67.60;;;;;;5090008;28;20583;-41
2021/04/26 09:49:21;;;;;;;1.40;0.70;;;14.00;67.60;;;;;;5090095;28;20052;-38
2021/04/26 09:51:56;;;;;;;0.80;0.60;;;14.00;67.60;;;;;;5090765;28;20075;-39
2021/04/26 09:54:39;;;;;;;1.13;0.70;;;14.00;67.50;;;;;;5089775;28;20515;-39
2021/04/26 09:57:05;;;;;;;1.52;0.70;;;14.00;67.50;;;;;;5090330;28;20130;-39
2021/04/26 09:59:31;;;;;;;2.78;0.80;;;14.00;67.50;;;;;;5089187;28;20056;-39
2021/04/26 10:01:57;;;;;;;0.88;0.50;;;14.10;67.50;;;;;;5090943;28;20040;-40
2021/04/26 10:04:23;;;;;;;1.20;0.60;;;14.10;67.50;;;;;;5090000;28;20048;-40
2021/04/26 10:06:49;;;;;;;1.17;0.90;;;14.10;67.40;;;;;;5087268;28;20127;-39
2021/04/26 10:09:16;;;;;;;0.63;0.60;;;14.10;67.40;;;;;;5079273;28;20123;-39
2021/04/26 10:11:42;;;;;;;0.50;0.50;;;14.10;67.40;;;;;;5069040;28;20048;-39
2021/04/26 10:14:09;;;;;;;0.70;0.60;;;14.10;67.40;;;;;;5087382;28;20119;-39
2021/04/26 10:16:53;;;;;;;1.23;0.43;;;14.20;67.30;;;;;;5092989;28;20080;-40
2021/04/26 10:19:28;;;;;;;0.95;0.80;;;14.20;67.30;;;;;;5093933;28;20052;-41
2021/04/26 10:21:57;;;;;;;0.57;0.50;;;14.20;67.30;;;;;;5093903;28;20047;-39
2021/04/26 10:24:24;;;;;;;1.05;0.45;;;14.30;67.30;;;;;;5093332;28;20044;-40
2021/04/26 10:26:54;;;;;;;1.25;0.70;;;14.30;67.30;;;;;;5093044;28;20488;-41
2021/04/26 10:29:29;;;;;;;0.70;0.70;;;14.30;67.20;;;;;;5093986;28;20043;-41
2021/04/26 10:31:59;;;;;;;0.47;0.47;;;14.30;67.20;;;;;;5094935;28;20450;-42
2021/04/26 10:34:47;;;;;;;0.60;0.60;;;14.30;67.10;;;;;;5094992;28;20429;-43
2021/04/26 10:37:17;;;;;;;0.50;0.50;;;14.40;67.10;;;;;;5091399;27;20052;-42
2021/04/26 10:40:07;;;;;;;0.77;0.60;;;14.40;67.10;;;;;;5094899;28;20139;-41
2021/04/26 10:42:38;;;;;;;0.95;0.55;;;14.40;67.10;;;;;;5094595;28;20488;-42
2021/04/26 10:45:13;;;;;;;0.60;0.52;;;14.30;67.00;;;;;;5094097;28;20060;-40
2021/04/26 10:47:40;;;;;;;0.82;0.60;;;14.40;66.90;;;;;;5094514;28;20055;-41
2021/04/26 10:50:06;;;;;;;0.40;0.40;;;14.50;67.00;;;;;;5094415;28;20162;-41
2021/04/26 10:52:35;;;;;;;1.10;0.60;;;14.50;66.90;;;;;;5094388;28;20472;-42
2021/04/26 10:55:12;;;;;;;1.05;0.68;;;14.60;66.90;;;;;;5094611;28;20058;-41
2021/04/26 10:57:40;;;;;;;1.13;0.63;;;14.60;66.90;;;;;;5094605;28;20044;-41
2021/04/26 11:00:21;;;;;;;1.02;0.40;;;14.40;67.40;;;;;;5094278;28;20068;-42
2021/04/26 11:02:48;;;;;;;1.05;0.95;;;14.60;66.80;;;;;;5094245;28;20446;-41
2021/04/26 11:05:26;;;;;;;1.13;0.50;;;14.60;66.80;;;;;;5094337;28;20071;-40
2021/04/26 11:08:00;;;;;;;0.60;0.60;;;14.60;66.70;;;;;;5094307;28;20044;-39
2021/04/26 11:10:29;;;;;;;0.85;0.60;;;14.60;66.70;;;;;;5094206;28;20683;-42
2021/04/26 11:12:56;;;;;;;1.52;0.70;;;14.60;66.60;;;;;;5094221;28;20503;-43
2021/04/26 11:15:23;;;;;;;0.88;0.50;;;14.70;66.60;;;;;;5093950;28;20059;-40
2021/04/26 11:17:50;;;;;;;0.73;0.50;;;14.70;66.60;;;;;;5094172;28;20396;-43
2021/04/26 11:20:19;;;;;;;0.60;0.40;;;14.70;66.60;;;;;;5094024;28;20118;-43
2021/04/26 11:22:46;;;;;;;0.75;0.55;;;14.70;66.60;;;;;;5093945;28;20047;-45
2021/04/26 11:25:32;;;;;;;1.23;0.70;;;14.70;66.50;;;;;;5094129;28;20127;-45
2021/04/26 11:27:58;;;;;;;0.55;0.55;;;14.80;66.50;;;;;;5093875;28;20273;-45
2021/04/26 11:30:29;;;;;;;0.80;0.47;;;14.80;66.50;;;;;;5093984;28;20113;-43
2021/04/26 11:33:13;;;;;;;0.47;0.40;;;14.80;66.50;;;;;;5093646;28;20547;-43
2021/04/26 11:36:12;;;;;;;0.50;0.50;;;14.80;66.40;;;;;;5093941;28;20051;-40
2021/04/26 11:38:40;;;;;;;0.88;0.45;;;14.80;66.30;;;;;;5093788;28;20571;-40
2021/04/26 11:41:06;;;;;;;1.20;0.60;;;14.80;66.40;;;;;;5093006;28;20193;-40
2021/04/26 11:43:32;;;;;;;0.40;0.40;;;14.90;66.40;;;;;;5093600;28;20444;-40
2021/04/26 11:45:58;;;;;;;1.20;0.40;;;14.90;66.30;;;;;;5093324;28;20052;-40
2021/04/26 11:48:26;;;;;;;0.77;0.50;;;14.90;66.30;;;;;;5093495;28;20052;-40
2021/04/26 11:50:53;;;;;;;1.17;0.50;;;14.90;66.20;;;;;;5093468;28;20119;-40
2021/04/26 11:53:30;;;;;;;0.68;0.50;;;14.90;66.20;;;;;;5093484;28;20122;-40
2021/04/26 11:56:10;;;;;;;0.55;0.50;;;15.00;66.20;;;;;;5093448;28;20047;-38
2021/04/26 11:58:36;;;;;;;1.33;0.60;;;14.90;66.10;;;;;;5093064;28;20092;-44
2021/04/26 12:01:06;;;;;;;0.52;0.52;;;14.90;66.10;;;;;;5093456;28;20040;-44
2021/04/26 12:03:32;;;;;;;0.60;0.45;;;15.00;66.10;;;;;;5092935;28;20048;-41
2021/04/26 12:06:02;;;;;;;1.00;0.77;;;15.00;66.10;;;;;;5093357;28;20503;-43
2021/04/26 12:08:42;;;;;;;0.40;0.40;;;15.00;66.00;;;;;;5093305;28;20043;-51
2021/04/26 12:11:20;;;;;;;1.38;0.70;;;15.00;66.00;;;;;;5093092;28;20071;-45
2021/04/26 12:14:08;;;;;;;0.50;0.50;;;15.00;66.00;;;;;;5093369;28;20123;-48
2021/04/26 12:16:33;;;;;;;1.05;0.50;;;15.00;65.90;;;;;;5093024;28;20051;-47
2021/04/26 12:19:01;;;;;;;0.90;0.70;;;15.10;66.00;;;;;;5092750;28;20105;-45
2021/04/26 12:21:28;;;;;;;1.10;0.65;;;15.10;66.00;;;;;;5092911;28;20044;-42
2021/04/26 12:23:54;;;;;;;0.50;0.50;;;15.10;66.00;;;;;;5093022;28;20093;-43
2021/04/26 12:26:20;;;;;;;0.68;0.40;;;15.10;65.90;;;;;;5093048;28;20044;-45
2021/04/26 12:28:48;;;;;;;0.57;0.50;;;15.10;65.90;;;;;;5092971;28;20062;-42
2021/04/26 12:31:25;;;;;;;0.57;0.40;;;15.20;66.00;;;;;;5092876;28;20071;-42
2021/04/26 12:33:51;;;;;;;1.48;0.57;;;15.10;65.80;;;;;;5084160;28;20039;-43
2021/04/26 12:36:18;;;;;;;1.02;0.70;;;15.10;65.90;;;;;;5092476;28;20059;-49
2021/04/26 12:38:51;;;;;;;0.80;0.60;;;15.20;65.90;;;;;;5092208;28;20040;-41
2021/04/26 12:41:18;;;;;;;0.50;0.50;;;15.10;65.80;;;;;;5092446;28;20058;-39
2021/04/26 12:43:50;;;;;;;0.40;0.40;;;15.20;65.80;;;;;;5091645;28;20040;-48
2021/04/26 12:46:18;;;;;;;1.10;1.00;;;15.20;65.80;;;;;;5091664;28;20060;-41
2021/04/26 12:48:43;;;;;;;0.52;0.52;;;15.20;65.80;;;;;;5091403;28;20044;-38
2021/04/26 12:51:10;;;;;;;3.88;1.15;;;15.20;65.80;;;;;;5092454;28;20048;-42
2021/04/26 12:53:38;;;;;;;2.08;0.93;;;15.20;64.80;;;;;;5096063;28;20404;-42
2021/04/26 12:56:04;;;;;;;2.45;0.88;;;15.00;64.20;;;;;;5096661;28;20048;-43